Impacts TAF Board
For situational awareness. Not to be used for flight planning purposes.
IDs:

KFLG - Flagstaff/Pulliam Ar, AZ, US

Issued at 1739 UTC 08 Aug 2020
Updated at 2101 UTC 08 Aug 2020
Potential Impact None Slight Moderate High
Time2057Z 08/21Z 08/22Z 08/23Z 09/00Z 09/01Z 09/02Z 09/03Z 09/04Z 09/05Z 09/06Z 09/07Z 09/08Z 09/09Z>>
Type OBS PRVL PRVL PRVL PRVL PRVL PRVL PRVL PRVL PRVL PRVL PRVL PRVL PRVL
VIS 10 >6 >6 >6 >6 >6 >6 >6 >6 >6 >6 >6 >6 >6
CIG -- -- -- -- -- -- -- -- -- -- -- -- -- --
Cover CLR FEW FEW FEW FEW FEW SKC SKC SKC SKC SKC SKC SKC SKC
FltCat VFR VFR VFR VFR VFR VFR VFR VFR VFR VFR VFR VFR VFR VFR
WX -- VCSH VCSH VCSH -- -- -- -- -- -- -- -- -- --
WDir 230 220 220 220 230 230 VRB VRB VRB VRB VRB VRB VRB VRB
WSpd 12 12 12 12 11 11 5 5 5 5 5 5 5 5
WGst 20 22 22 22 18 18 -- -- -- -- -- -- -- --
Raw TAF
KFLG 081739Z 0818/0918 22012G22KT P6SM FEW080
  FM082000 22012G22KT P6SM VCSH FEW080
  FM090000 23011G18KT P6SM FEW090
  FM090200 VRB05KT P6SM SKC


Raw METAR
KFLG 082057Z 23012G20KT 210V270 10SM CLR 27/02 A3034 RMK AO2 SLP171 T02720017 56010
KFLG 081957Z 21015G25KT 10SM SCT095 28/01 A3035 RMK AO2 PK WND 23028/1917 SLP171 T02780011
KFLG 081857Z 22020G27KT 10SM SCT110 28/01 A3037 RMK AO2 PK WND 21027/1856 SLP175 T02780006
KFLG 081757Z 21012G18KT 10SM SCT095 27/02 A3038 RMK AO2 SLP175 T02670022 10272 20078 56002

METAR Board
Radar Display
Forecast Discussion
For situational awareness. Not to be used for flight planning purposes.